Time;durP1;ratioP1;P1;durP2;ratioP2;P2;SDS_P1;SDS_P2;PMS_P1;PMS_P2;Temp;Humidity;BMP_temperature;BMP_pressure;BME280_temperature;BME280_humidity;BME280_pressure;Samples;Min_cycle;Max_cycle;Signal;HPM_P1;HPM_P2
2022/08/31 00:04:02;;;;;;;1.58;1.15;;;;;;;18.09;55.18;102360.56;5193158;28;20484;-38
2022/08/31 00:06:35;;;;;;;;;;;;;;;18.18;55.17;102362.28;5200942;28;20048;-40
2022/08/31 00:09:08;;;;;;;4.07;1.20;;;;;;;18.16;55.17;102369.63;5202816;28;20323;-40
2022/08/31 00:11:42;;;;;;;3.40;1.70;;;;;;;18.16;55.21;102370.44;5194428;28;20408;-36
2022/08/31 00:14:15;;;;;;;3.25;1.20;;;;;;;18.21;55.21;102367.31;5201280;28;20190;-43
2022/08/31 00:17:03;;;;;;;4.07;0.95;;;;;;;18.21;55.27;102375.31;5212561;28;20060;-39
2022/08/31 00:19:35;;;;;;;2.70;1.35;;;;;;;18.20;55.25;102368.28;5194563;28;20105;-41
2022/08/31 00:22:08;;;;;;;4.32;1.63;;;;;;;18.22;55.36;102368.97;5200676;28;20489;-41
2022/08/31 00:24:41;;;;;;;1.60;0.98;;;;;;;18.18;55.37;102367.63;5196126;28;20105;-41
2022/08/31 00:27:15;;;;;;;2.60;1.45;;;;;;;18.19;55.51;102369.28;5199265;28;20102;-42
2022/08/31 00:29:47;;;;;;;5.07;1.52;;;;;;;18.19;55.28;102369.28;5192601;28;20053;-42
2022/08/31 00:32:20;;;;;;;1.98;1.10;;;;;;;18.15;55.45;102357.25;5197174;28;20092;-41
2022/08/31 00:34:52;;;;;;;4.00;1.45;;;;;;;18.11;55.67;102355.88;5202592;28;20382;-45
2022/08/31 00:37:25;;;;;;;3.95;1.60;;;;;;;18.13;55.71;102361.91;5199784;28;20473;-44
2022/08/31 00:39:58;;;;;;;4.95;1.30;;;;;;;18.09;55.81;102357.91;5199478;28;21926;-41
2022/08/31 00:42:32;;;;;;;4.35;1.20;;;;;;;18.13;55.86;102360.06;5200490;28;20830;-40
2022/08/31 00:45:07;;;;;;;1.13;0.98;;;;;;;18.15;55.55;102357.25;5192562;28;20490;-43
2022/08/31 00:47:39;;;;;;;4.00;1.33;;;;;;;18.07;55.66;102355.38;5191366;28;20049;-41
2022/08/31 00:50:15;;;;;;;4.90;1.02;;;;;;;18.05;55.95;102353.84;5194952;28;20040;-42
2022/08/31 00:52:56;;;;;;;1.50;1.40;;;;;;;18.05;55.73;102354.69;5189368;28;20435;-40
2022/08/31 00:55:32;;;;;;;1.80;0.95;;;;;;;18.01;55.88;102356.03;5192902;28;20551;-44
2022/08/31 00:58:12;;;;;;;3.15;1.50;;;;;;;18.01;55.90;102372.06;5197815;28;20123;-42
2022/08/31 01:00:45;;;;;;;5.22;1.20;;;;;;;17.90;56.13;102364.31;5192125;28;20773;-40
2022/08/31 01:03:20;;;;;;;3.47;1.25;;;;;;;17.94;56.28;102371.88;5191480;28;20045;-45
2022/08/31 01:05:52;;;;;;;1.83;1.13;;;;;;;17.91;56.53;102372.19;5200353;28;20435;-40
2022/08/31 01:08:25;;;;;;;5.07;1.63;;;;;;;17.82;56.60;102366.97;5198661;28;21224;-45
2022/08/31 01:10:59;;;;;;;1.55;1.25;;;;;;;17.86;56.56;102373.66;5198692;28;20130;-44
2022/08/31 01:13:33;;;;;;;5.30;1.23;;;;;;;17.83;56.70;102374.81;5198581;28;20044;-41
2022/08/31 01:16:11;;;;;;;3.03;1.48;;;;;;;17.83;56.70;102380.16;5200753;28;20481;-45
2022/08/31 01:18:45;;;;;;;2.08;0.98;;;;;;;17.79;56.57;102368.13;5190520;28;20428;-40
2022/08/31 01:21:26;;;;;;;6.50;1.27;;;;;;;17.82;56.71;102365.13;5196544;28;20135;-43
2022/08/31 01:24:02;;;;;;;2.00;1.10;;;;;;;17.72;56.83;102357.22;5198961;28;20396;-43
2022/08/31 01:26:35;;;;;;;2.45;1.08;;;;;;;17.78;56.92;102361.13;5194670;28;20174;-41
2022/08/31 01:29:08;;;;;;;5.35;1.33;;;;;;;17.81;56.98;102376.84;5195527;28;20131;-40
2022/08/31 01:31:44;;;;;;;4.68;1.45;;;;;;;17.76;56.92;102368.41;5192287;28;20040;-40
2022/08/31 01:34:17;;;;;;;1.67;1.00;;;;;;;17.73;56.80;102363.41;5192897;28;20110;-39
2022/08/31 01:36:51;;;;;;;1.25;1.10;;;;;;;17.77;57.29;102374.59;5198420;28;20052;-40
2022/08/31 01:39:25;;;;;;;2.65;1.17;;;;;;;17.76;57.05;102376.44;5202828;28;20668;-44
2022/08/31 01:41:58;;;;;;;4.10;1.55;;;;;;;17.75;57.37;102374.78;5202170;28;20125;-39
2022/08/31 01:44:31;;;;;;;2.92;1.17;;;;;;;17.74;57.47;102375.75;5201795;28;20393;-42
2022/08/31 01:47:03;;;;;;;6.38;1.75;;;;;;;17.72;57.33;102381.25;5203789;28;20051;-38
2022/08/31 01:49:36;;;;;;;9.10;1.45;;;;;;;17.66;57.39;102379.22;5200104;28;20137;-41
2022/08/31 01:52:09;;;;;;;4.75;1.35;;;;;;;17.65;57.40;102369.56;5199274;28;20126;-40
2022/08/31 01:54:43;;;;;;;5.70;1.30;;;;;;;17.60;57.06;102373.69;5198923;28;20408;-39
2022/08/31 01:57:15;;;;;;;1.42;1.33;;;;;;;17.66;57.38;102378.41;5201842;28;20471;-41
2022/08/31 01:59:48;;;;;;;3.50;1.55;;;;;;;17.64;57.35;102380.38;5199360;28;20548;-40
2022/08/31 02:02:21;;;;;;;1.48;1.35;;;;;;;17.60;57.43;102379.03;5202770;28;20507;-38
2022/08/31 02:04:53;;;;;;;4.78;1.38;;;;;;;17.63;57.31;102378.72;5201511;28;20497;-37
2022/08/31 02:07:26;;;;;;;2.05;1.30;;;;;;;17.59;57.50;102377.34;5201137;28;20045;-41
2022/08/31 02:10:00;;;;;;;3.33;1.10;;;;;;;17.68;57.04;102387.06;5206895;28;20051;-39
2022/08/31 02:12:32;;;;;;;7.75;1.33;;;;;;;17.72;57.09;102383.94;5202342;28;20558;-41
2022/08/31 02:15:06;;;;;;;2.45;1.17;;;;;;;17.72;56.92;102377.75;5200989;28;20480;-39
2022/08/31 02:17:39;;;;;;;1.85;1.30;;;;;;;17.63;57.04;102368.03;5199013;28;20391;-40
2022/08/31 02:20:14;;;;;;;1.42;1.33;;;;;;;17.71;57.15;102381.41;5196362;28;20076;-38
2022/08/31 02:22:47;;;;;;;2.50;1.48;;;;;;;17.64;56.97;102369.69;5202855;28;20048;-41
2022/08/31 02:25:21;;;;;;;;;;;;;;;17.69;57.16;102378.91;5203096;28;20055;-40
2022/08/31 02:27:53;;;;;;;2.95;1.23;;;;;;;17.65;56.95;102368.69;5204661;28;20466;-44
2022/08/31 02:30:26;;;;;;;1.33;1.23;;;;;;;17.62;57.16;102369.88;5200569;28;20067;-41
2022/08/31 02:32:59;;;;;;;4.88;1.58;;;;;;;17.64;57.11;102369.69;5200238;28;20354;-41
2022/08/31 02:35:31;;;;;;;1.30;0.98;;;;;;;17.55;57.10;102355.44;5197876;28;20519;-42
2022/08/31 02:38:04;;;;;;;1.63;1.20;;;;;;;17.64;57.21;102369.69;5205412;28;20515;-43
2022/08/31 02:40:39;;;;;;;2.58;1.58;;;;;;;17.59;57.32;102367.50;5201017;28;20083;-43
2022/08/31 02:43:13;;;;;;;4.53;1.42;;;;;;;17.56;57.30;102372.31;5193641;28;20377;-38
2022/08/31 02:45:46;;;;;;;6.55;1.30;;;;;;;17.50;57.32;102363.13;5201714;28;20413;-38
2022/08/31 02:48:18;;;;;;;2.67;1.15;;;;;;;17.51;57.17;102370.97;5200040;28;20131;-41
2022/08/31 02:50:52;;;;;;;8.77;1.83;;;;;;;17.53;57.28;102368.16;5206438;28;20424;-40
2022/08/31 02:53:25;;;;;;;1.20;1.10;;;;;;;17.48;57.34;102363.25;5200278;28;20068;-41
2022/08/31 02:55:59;;;;;;;4.65;1.10;;;;;;;17.45;57.17;102365.41;5206331;28;20453;-42
2022/08/31 02:58:32;;;;;;;4.22;1.20;;;;;;;17.43;57.34;102368.22;5201166;28;20538;-41
2022/08/31 03:01:05;;;;;;;1.33;1.10;;;;;;;17.34;57.36;102363.84;5194333;28;20185;-42
2022/08/31 03:03:37;;;;;;;4.15;1.13;;;;;;;17.37;57.28;102373.38;5197333;28;20048;-43
2022/08/31 03:06:10;;;;;;;2.05;1.50;;;;;;;17.38;57.27;102370.56;5202536;28;20118;-41
2022/08/31 03:08:42;;;;;;;3.50;1.23;;;;;;;17.37;57.10;102368.03;5188003;28;20110;-40
2022/08/31 03:11:18;;;;;;;2.63;1.25;;;;;;;17.34;57.00;102368.34;5200616;28;20476;-39
2022/08/31 03:13:50;;;;;;;0.85;0.85;;;;;;;17.34;56.87;102363.84;5202452;28;20561;-42
2022/08/31 03:17:15;;;;;;;1.50;1.27;;;;;;;17.36;56.90;102377.88;5196504;28;20669;-42
2022/08/31 03:19:48;;;;;;;1.33;1.20;;;;;;;17.32;56.73;102375.69;5196249;28;20040;-43
2022/08/31 03:22:20;;;;;;;1.52;1.00;;;;;;;17.18;56.71;102355.72;5203698;28;20561;-43
2022/08/31 03:24:53;;;;;;;1.35;1.10;;;;;;;17.24;56.45;102371.13;5199657;28;20044;-42
2022/08/31 03:27:29;;;;;;;3.00;1.00;;;;;;;17.22;56.46;102375.78;5191989;28;20508;-40
2022/08/31 03:30:01;;;;;;;6.38;1.38;;;;;;;17.22;56.54;102373.13;5197301;28;20052;-44
2022/08/31 03:32:34;;;;;;;1.70;1.38;;;;;;;17.17;56.46;102378.09;5199917;28;20076;-39
2022/08/31 03:35:08;;;;;;;1.83;1.10;;;;;;;17.09;56.21;102373.50;5206445;28;20067;-41
2022/08/31 03:37:41;;;;;;;2.10;1.38;;;;;;;17.11;56.21;102384.03;5198123;28;20373;-45
2022/08/31 03:40:14;;;;;;;3.42;1.63;;;;;;;17.09;56.14;102386.00;5198435;28;20519;-42
2022/08/31 03:42:48;;;;;;;1.10;1.08;;;;;;;17.01;55.91;102387.63;5201340;28;20439;-41
2022/08/31 03:45:21;;;;;;;1.98;1.10;;;;;;;17.01;55.86;102390.31;5199175;28;20149;-42
2022/08/31 03:47:54;;;;;;;3.83;1.10;;;;;;;16.97;55.79;102386.28;5193560;28;20044;-40
2022/08/31 03:54:13;;;;;;;0.88;0.88;;;;;;;16.93;55.35;102392.06;5196971;28;20141;-39
2022/08/31 03:56:46;;;;;;;1.42;1.15;;;;;;;16.89;54.98;102390.69;5194021;28;20059;-45
2022/08/31 03:59:20;;;;;;;1.15;1.00;;;;;;;16.88;55.02;102395.19;5197453;28;20646;-41
2022/08/31 04:01:53;;;;;;;1.42;1.10;;;;;;;16.85;54.74;102400.84;5209359;28;20045;-40
2022/08/31 04:04:25;;;;;;;1.67;0.95;;;;;;;16.82;54.77;102406.50;5198647;28;20050;-39
2022/08/31 04:06:58;;;;;;;2.50;1.13;;;;;;;16.80;54.54;102413.78;5197632;28;20550;-48
2022/08/31 04:09:31;;;;;;;1.45;1.20;;;;;;;16.70;54.11;102402.34;5194678;28;22147;-42
2022/08/31 04:12:04;;;;;;;1.77;1.10;;;;;;;16.71;53.87;102409.34;5193985;28;20073;-37
2022/08/31 04:14:37;;;;;;;;;;;;;;;16.73;53.68;102412.69;5200192;28;20452;-38
2022/08/31 04:17:11;;;;;;;1.00;0.90;;;;;;;16.73;53.67;102413.53;5201910;28;19990;-46
2022/08/31 04:19:43;;;;;;;3.35;1.15;;;;;;;16.65;53.39;102393.94;5182811;28;20068;-40
2022/08/31 04:22:15;;;;;;;1.58;0.70;;;;;;;16.68;53.19;102409.66;5192810;28;20557;-40
2022/08/31 04:24:48;;;;;;;2.35;1.65;;;;;;;16.58;53.16;102399.88;5203199;28;20412;-41
2022/08/31 04:27:20;;;;;;;1.65;0.90;;;;;;;16.55;53.21;102400.19;5202931;28;20446;-45
2022/08/31 04:29:54;;;;;;;4.30;1.20;;;;;;;16.43;53.04;102396.06;5199042;28;20053;-40
2022/08/31 04:32:27;;;;;;;4.95;1.00;;;;;;;16.41;53.07;102392.69;5197509;28;20052;-45
2022/08/31 04:35:00;;;;;;;1.83;0.77;;;;;;;16.44;53.00;102408.38;5197056;28;20542;-41
2022/08/31 04:37:33;;;;;;;2.42;1.10;;;;;;;16.43;52.82;102409.38;5183945;28;20048;-39
2022/08/31 04:40:10;;;;;;;1.92;0.93;;;;;;;16.40;52.84;102412.34;5189058;28;20049;-43
2022/08/31 04:42:43;;;;;;;1.40;0.68;;;;;;;16.40;52.77;102417.69;5175070;28;20076;-40
2022/08/31 04:45:18;;;;;;;2.53;1.30;;;;;;;16.38;52.88;102411.66;5200443;28;20476;-40
2022/08/31 04:47:50;;;;;;;5.10;2.08;;;;;;;16.32;53.08;102404.25;5199495;28;20052;-43
2022/08/31 04:50:23;;;;;;;1.13;0.80;;;;;;;16.21;52.94;102401.81;5201753;28;20496;-42
2022/08/31 04:52:56;;;;;;;1.20;1.00;;;;;;;16.23;53.18;102405.13;5206280;28;20562;-41
2022/08/31 04:55:28;;;;;;;1.35;1.17;;;;;;;16.19;53.27;102404.59;5187592;28;20433;-41
2022/08/31 04:58:01;;;;;;;1.55;1.00;;;;;;;16.27;53.44;102418.03;5201229;28;20786;-41
2022/08/31 05:00:36;;;;;;;0.80;0.80;;;;;;;16.23;53.63;102416.66;5199935;28;20041;-40
2022/08/31 05:03:08;;;;;;;5.10;1.00;;;;;;;16.26;53.66;102423.50;5205501;28;20409;-42
2022/08/31 05:05:41;;;;;;;3.47;1.00;;;;;;;16.28;53.63;102429.53;5203066;28;20044;-40
2022/08/31 05:08:13;;;;;;;0.85;0.85;;;;;;;16.22;53.87;102420.31;5200608;28;20492;-43
2022/08/31 05:10:47;;;;;;;2.97;0.93;;;;;;;16.16;53.75;102420.06;5199686;28;20443;-45
2022/08/31 05:13:19;;;;;;;1.33;0.77;;;;;;;16.23;53.80;102438.00;5205979;28;20087;-42
2022/08/31 05:15:54;;;;;;;1.73;0.95;;;;;;;16.24;53.76;102436.16;5204490;28;20497;-41
2022/08/31 05:18:26;;;;;;;1.63;1.00;;;;;;;16.27;53.74;102435.88;5205675;28;20037;-44
2022/08/31 05:21:08;;;;;;;0.80;0.80;;;;;;;16.27;53.80;102430.53;5207113;28;20056;-43
2022/08/31 05:23:41;;;;;;;1.10;0.80;;;;;;;16.35;53.69;102433.28;5207474;28;20161;-41
2022/08/31 05:26:18;;;;;;;2.38;0.93;;;;;;;16.38;53.71;102427.66;5204662;28;20057;-41
2022/08/31 05:28:51;;;;;;;4.25;1.05;;;;;;;16.44;53.76;102429.72;5207238;28;20048;-42
2022/08/31 05:31:27;;;;;;;1.38;0.98;;;;;;;16.43;53.58;102435.22;5207314;28;20711;-47
2022/08/31 05:34:01;;;;;;;1.95;0.85;;;;;;;16.46;53.76;102435.75;5201995;28;20048;-42
2022/08/31 05:36:35;;;;;;;2.22;0.90;;;;;;;16.53;53.55;102449.31;5196539;28;20134;-39
2022/08/31 05:39:10;;;;;;;4.20;0.90;;;;;;;16.44;53.52;102437.72;5210415;28;20048;-40
2022/08/31 05:41:45;;;;;;;2.22;0.95;;;;;;;16.47;53.47;102437.41;5181564;28;20156;-40
2022/08/31 05:44:19;;;;;;;4.78;1.02;;;;;;;16.44;53.59;102443.06;5201305;28;20121;-40
2022/08/31 05:46:53;;;;;;;3.35;0.80;;;;;;;16.54;53.48;102457.19;5206113;27;20044;-41
2022/08/31 05:49:26;;;;;;;3.63;0.80;;;;;;;16.47;53.60;102444.59;5206707;28;20128;-40
2022/08/31 05:51:58;;;;;;;1.38;0.63;;;;;;;16.48;53.39;102444.44;5178073;28;20485;-46
2022/08/31 05:54:33;;;;;;;3.30;0.80;;;;;;;16.58;53.43;102442.56;5202580;28;21329;-40
2022/08/31 05:57:07;;;;;;;1.13;1.00;;;;;;;16.57;53.44;102442.72;5203492;28;20404;-42
2022/08/31 05:59:39;;;;;;;;;;;;;;;16.64;53.59;102442.97;5205273;28;20123;-42
2022/08/31 06:02:16;;;;;;;1.47;1.10;;;;;;;16.60;54.05;102435.25;5202928;27;20288;-43
2022/08/31 06:04:50;;;;;;;0.60;0.60;;;;;;;16.72;54.19;102449.22;5203311;28;20430;-42
2022/08/31 06:07:23;;;;;;;1.45;0.88;;;;;;;16.82;54.50;102443.84;5205002;28;20488;-39
2022/08/31 06:09:55;;;;;;;3.13;0.77;;;;;;;16.94;54.69;102453.31;5205265;28;20047;-41
2022/08/31 06:12:30;;;;;;;1.75;0.70;;;;;;;16.99;54.37;102444.81;5202246;28;20671;-39
2022/08/31 06:15:03;;;;;;;1.85;1.23;;;;;;;17.31;54.23;102440.75;5203494;28;20065;-40
2022/08/31 06:17:38;;;;;;;0.80;0.80;;;;;;;18.99;53.59;102446.41;5203365;28;20485;-42
2022/08/31 06:20:11;;;;;;;2.40;1.00;;;;;;;21.18;50.05;102448.47;5202077;28;20400;-40
2022/08/31 06:22:45;;;;;;;;;;;;;;;22.85;46.39;102438.97;5199936;28;20041;-41
2022/08/31 06:25:18;;;;;;;1.85;0.50;;;;;;;23.81;43.86;102433.94;5205915;28;19944;-43
2022/08/31 06:27:50;;;;;;;5.40;0.70;;;;;;;24.97;42.95;102443.94;5193335;28;20048;-40
2022/08/31 06:30:25;;;;;;;0.60;0.40;;;;;;;26.03;39.80;102443.84;5204500;28;20118;-42
2022/08/31 06:33:00;;;;;;;0.90;0.55;;;;;;;26.50;39.09;102449.88;5201670;28;20373;-40
2022/08/31 06:35:33;;;;;;;2.58;0.60;;;;;;;27.34;37.42;102455.97;5201143;28;20434;-40
2022/08/31 06:38:05;;;;;;;;;;;;;;;27.97;36.01;102438.66;5204054;28;20094;-44
2022/08/31 06:40:38;;;;;;;2.13;0.33;;;;;;;28.19;33.81;102468.88;5198837;28;19943;-39
2022/08/31 06:43:11;;;;;;;2.90;0.43;;;;;;;27.93;34.15;102454.56;5203466;28;20094;-45
2022/08/31 06:45:43;;;;;;;0.75;0.45;;;;;;;27.98;34.06;102452.00;5201119;28;20130;-40
2022/08/31 06:48:17;;;;;;;4.22;0.50;;;;;;;28.48;33.30;102456.41;5203995;28;20063;-42
2022/08/31 06:50:56;;;;;;;1.58;0.50;;;;;;;29.34;32.69;102459.69;5202081;28;20094;-42
2022/08/31 06:53:29;;;;;;;2.50;0.50;;;;;;;29.99;31.71;102461.41;5200392;28;20554;-41
2022/08/31 06:56:05;;;;;;;0.85;0.43;;;;;;;30.07;30.97;102464.59;5201011;28;20111;-44
2022/08/31 06:58:38;;;;;;;2.22;0.43;;;;;;;30.15;30.72;102466.09;5206048;28;20049;-45
2022/08/31 07:01:14;;;;;;;2.15;0.57;;;;;;;30.41;30.54;102463.91;5196195;28;20368;-41
2022/08/31 07:03:49;;;;;;;0.32;0.22;;;;;;;30.45;30.46;102454.19;5201650;28;20072;-41
2022/08/31 07:06:24;;;;;;;1.83;0.50;;;;;;;30.95;29.59;102469.81;5198850;28;20049;-43
2022/08/31 07:08:59;;;;;;;2.50;0.75;;;;;;;31.16;29.06;102466.34;5200117;28;20546;-43
2022/08/31 07:11:36;;;;;;;1.45;0.55;;;;;;;30.92;29.14;102460.22;5203790;28;25416;-42
2022/08/31 07:14:12;;;;;;;2.58;0.30;;;;;;;31.18;29.18;102475.09;5201261;28;20205;-39
2022/08/31 07:16:45;;;;;;;0.88;0.57;;;;;;;30.76;29.19;102478.19;5200104;28;20044;-45
2022/08/31 07:19:20;;;;;;;2.88;0.47;;;;;;;31.09;28.78;102459.38;5202188;28;20500;-41
2022/08/31 07:21:55;;;;;;;1.95;0.50;;;;;;;30.95;28.35;102480.72;5201214;28;20346;-46
2022/08/31 07:24:32;;;;;;;0.85;0.30;;;;;;;30.51;28.84;102475.00;5203278;28;20443;-40
2022/08/31 07:27:08;;;;;;;1.27;0.40;;;;;;;30.70;29.12;102479.19;5201181;28;20066;-44
2022/08/31 07:29:41;;;;;;;1.10;0.60;;;;;;;30.72;28.60;102468.84;5208720;28;20064;-41
2022/08/31 07:32:16;;;;;;;1.17;0.40;;;;;;;30.36;29.25;102472.00;5193748;28;20431;-43
2022/08/31 07:34:50;;;;;;;8.85;0.63;;;;;;;30.25;29.42;102484.56;5196761;28;20190;-41
2022/08/31 07:43:03;;;;;;;3.92;0.82;;;;;;;29.99;29.50;102472.31;5200733;28;20725;-41
2022/08/31 07:45:36;;;;;;;2.17;0.60;;;;;;;30.30;29.33;102474.59;5199213;28;20377;-45
2022/08/31 07:48:09;;;;;;;1.90;0.75;;;;;;;30.38;29.13;102470.66;5196282;28;20052;-45
2022/08/31 07:50:45;;;;;;;4.00;1.13;;;;;;;30.60;29.35;102479.00;5195076;28;20052;-42
2022/08/31 07:53:19;;;;;;;1.73;0.70;;;;;;;31.71;28.26;102470.16;5198088;28;20350;-39
2022/08/31 07:55:54;;;;;;;1.63;0.50;;;;;;;31.39;27.87;102491.81;5207181;28;20368;-43
2022/08/31 07:58:26;;;;;;;1.90;0.60;;;;;;;30.82;28.26;102470.97;5200561;28;20435;-44
2022/08/31 08:01:01;;;;;;;;;;;;;;;30.29;29.03;102481.13;5198222;28;20431;-46
2022/08/31 08:04:00;;;;;;;5.00;0.93;;;;;;;30.13;29.22;102491.94;5198297;28;20328;-41
2022/08/31 08:06:35;;;;;;;2.80;1.17;;;;;;;29.76;29.79;102482.19;5198796;28;20412;-44
2022/08/31 08:09:08;;;;;;;2.40;0.82;;;;;;;30.32;29.35;102479.84;5200570;28;20048;-47
2022/08/31 08:11:45;;;;;;;4.38;0.82;;;;;;;30.79;29.06;102482.38;5198002;28;20523;-41
2022/08/31 08:14:17;;;;;;;1.60;0.65;;;;;;;30.61;28.75;102491.56;5196290;28;20130;-47
2022/08/31 08:16:50;;;;;;;3.10;1.13;;;;;;;29.86;29.49;102489.75;5197580;28;20503;-43
2022/08/31 08:19:23;;;;;;;1.02;0.60;;;;;;;29.42;30.35;102490.09;5199161;28;20557;-43
2022/08/31 08:21:58;;;;;;;3.47;1.15;;;;;;;29.53;30.27;102487.63;5199102;28;20052;-38
2022/08/31 08:24:31;;;;;;;3.35;1.38;;;;;;;29.30;30.42;102486.53;5199168;28;20044;-40
2022/08/31 08:27:22;;;;;;;2.50;0.80;;;;;;;28.71;31.15;102493.72;5202616;28;20040;-45
2022/08/31 08:29:54;;;;;;;4.57;0.70;;;;;;;28.22;31.74;102479.31;5197209;28;20079;-44
2022/08/31 08:32:30;;;;;;;1.88;0.77;;;;;;;28.04;31.79;102483.69;5204842;28;20400;-40
2022/08/31 08:35:03;;;;;;;2.03;0.65;;;;;;;28.10;31.92;102502.84;5195342;28;20126;-45
2022/08/31 08:37:39;;;;;;;1.05;0.60;;;;;;;27.52;32.83;102480.44;5200875;28;20044;-45
2022/08/31 08:40:27;;;;;;;2.65;0.90;;;;;;;27.36;33.29;102483.72;5194832;28;20048;-44
2022/08/31 08:43:01;;;;;;;5.75;0.85;;;;;;;27.51;33.27;102492.34;5200547;28;20444;-43
2022/08/31 08:45:35;;;;;;;1.40;0.73;;;;;;;27.66;33.06;102485.75;5203579;28;20040;-43
2022/08/31 08:48:10;;;;;;;1.58;0.80;;;;;;;27.83;32.58;102503.13;5204976;28;20044;-43
2022/08/31 08:50:43;;;;;;;1.15;0.80;;;;;;;27.45;32.83;102495.97;5199484;28;20421;-44
2022/08/31 08:53:21;;;;;;;5.35;0.88;;;;;;;27.46;32.93;102496.78;5206059;28;20054;-43
2022/08/31 08:55:53;;;;;;;3.78;0.60;;;;;;;27.70;32.75;102486.97;5201259;28;20427;-42
2022/08/31 08:58:26;;;;;;;;;;;;;;;26.98;33.54;102495.47;5201231;28;20594;-42
2022/08/31 09:01:03;;;;;;;5.65;0.90;;;;;;;26.49;34.27;102491.59;5215664;28;19974;-42
2022/08/31 09:03:49;;;;;;;1.98;0.88;;;;;;;26.35;34.72;102490.78;5195326;28;20496;-46
2022/08/31 09:06:48;;;;;;;3.45;1.35;;;;;;;26.15;35.24;102484.63;5189625;28;20377;-41
2022/08/31 09:09:37;;;;;;;5.95;0.90;;;;;;;25.82;35.76;102484.72;5188068;28;20469;-42
2022/08/31 09:12:25;;;;;;;3.67;0.75;;;;;;;25.42;36.56;102490.13;5191500;28;20055;-43
2022/08/31 09:15:43;;;;;;;2.22;0.93;;;;;;;25.16;37.26;102502.63;5193554;28;20051;-42
2022/08/31 09:18:30;;;;;;;4.03;0.85;;;;;;;24.19;38.66;102484.81;5075095;28;20550;-49
2022/08/31 09:21:16;;;;;;;1.70;0.73;;;;;;;23.67;39.79;102491.53;5197754;28;20060;-42
2022/08/31 09:24:00;;;;;;;2.97;0.90;;;;;;;23.15;40.60;102493.59;5192196;28;20507;-36
2022/08/31 09:26:54;;;;;;;4.78;0.90;;;;;;;22.47;42.39;102490.34;5196359;28;20075;-43
2022/08/31 09:29:30;;;;;;;1.15;0.70;;;;;;;21.95;43.37;102504.72;5193787;28;20072;-44
2022/08/31 09:32:06;;;;;;;1.40;0.90;;;;;;;21.83;44.05;102487.38;5199873;28;20073;-41
2022/08/31 09:34:40;;;;;;;2.05;0.80;;;;;;;21.60;44.70;102503.59;5209848;28;20365;-47
2022/08/31 09:37:19;;;;;;;1.42;0.75;;;;;;;21.16;45.87;102502.41;5194735;28;20045;-46
2022/08/31 09:39:54;;;;;;;4.53;1.52;;;;;;;21.08;45.86;102499.75;5203374;28;20045;-43
2022/08/31 09:42:35;;;;;;;4.80;1.10;;;;;;;21.25;45.56;102496.97;5212327;28;20512;-45
2022/08/31 09:45:17;;;;;;;3.90;1.33;;;;;;;21.25;45.64;102515.78;5201247;28;20400;-48
2022/08/31 09:47:54;;;;;;;4.65;0.95;;;;;;;21.29;45.18;102490.22;5197610;28;20037;-43
2022/08/31 09:50:33;;;;;;;4.20;0.70;;;;;;;21.47;44.90;102493.44;5210024;28;20053;-44
2022/08/31 09:56:19;;;;;;;7.68;1.63;;;;;;;21.42;44.41;102485.91;5193007;28;20407;-48
2022/08/31 09:59:00;;;;;;;7.70;1.23;;;;;;;21.43;44.36;102481.41;5204417;28;20080;-43
2022/08/31 10:01:43;;;;;;;2.97;1.25;;;;;;;21.30;44.54;102483.81;5207806;28;20491;-43
2022/08/31 10:04:24;;;;;;;3.42;0.88;;;;;;;21.59;43.68;102486.63;5199651;28;20048;-43
2022/08/31 10:07:10;;;;;;;0.88;0.68;;;;;;;21.46;41.95;102472.94;5204749;28;20060;-43
2022/08/31 10:09:47;;;;;;;1.67;0.93;;;;;;;21.44;41.34;102476.84;5199847;28;20483;-36
2022/08/31 10:12:26;;;;;;;5.78;1.02;;;;;;;21.40;41.50;102479.06;5200571;28;20044;-39
2022/08/31 10:15:06;;;;;;;3.40;0.73;;;;;;;21.35;41.04;102490.34;5210314;28;20048;-41
2022/08/31 10:17:45;;;;;;;1.55;0.75;;;;;;;21.28;40.44;102483.19;5202123;28;20448;-40
2022/08/31 10:20:22;;;;;;;2.90;1.05;;;;;;;21.18;40.96;102489.63;5201816;28;20044;-41
2022/08/31 10:23:07;;;;;;;5.82;1.75;;;;;;;21.25;40.98;102495.13;5207194;28;20562;-42
2022/08/31 10:25:45;;;;;;;4.03;0.90;;;;;;;21.29;40.69;102490.22;5204761;28;20041;-44
2022/08/31 10:28:32;;;;;;;1.85;0.90;;;;;;;21.30;40.58;102503.47;5199048;28;20068;-44
2022/08/31 10:31:15;;;;;;;2.30;0.98;;;;;;;21.40;40.31;102489.81;5206144;28;20356;-44
2022/08/31 10:36:48;;;;;;;3.03;1.02;;;;;;;21.62;38.17;102474.66;5204526;28;20102;-39
2022/08/31 10:39:33;;;;;;;4.88;1.52;;;;;;;21.77;38.51;102478.22;5201068;28;20134;-45
2022/08/31 10:42:21;;;;;;;4.22;0.80;;;;;;;22.13;38.45;102457.78;5201295;28;20134;-46
2022/08/31 10:44:59;;;;;;;10.43;1.30;;;;;;;21.91;39.00;102462.25;5201599;28;20175;-41
2022/08/31 10:47:40;;;;;;;1.55;1.02;;;;;;;21.78;39.66;102468.28;5204338;28;20438;-43
2022/08/31 10:50:22;;;;;;;2.97;0.95;;;;;;;21.78;38.83;102463.75;5198005;28;20488;-39
2022/08/31 10:53:06;;;;;;;3.95;0.93;;;;;;;21.79;38.27;102465.41;5199266;28;20266;-44
2022/08/31 10:55:48;;;;;;;5.22;1.05;;;;;;;21.77;37.62;102455.84;5202107;28;20547;-46
2022/08/31 10:58:32;;;;;;;5.68;1.30;;;;;;;21.79;37.83;102465.41;5200412;28;20044;-41
2022/08/31 11:01:16;;;;;;;8.27;0.90;;;;;;;21.94;37.57;102470.78;5200309;28;20048;-44
2022/08/31 11:04:42;;;;;;;4.50;0.70;;;;;;;21.86;37.94;102457.41;5188039;28;20592;-44
2022/08/31 11:07:29;;;;;;;3.38;0.90;;;;;;;22.18;38.47;102469.69;5199307;28;20051;-44
2022/08/31 11:10:18;;;;;;;3.65;0.70;;;;;;;22.08;38.40;102461.03;5202640;28;20040;-45
2022/08/31 11:12:57;;;;;;;6.95;2.15;;;;;;;21.95;38.57;102458.16;5199454;28;20385;-45
2022/08/31 11:16:05;;;;;;;3.03;1.15;;;;;;;22.07;39.09;102470.97;5201872;28;20491;-43
2022/08/31 11:19:53;;;;;;;3.10;0.90;;;;;;;22.06;39.42;102466.63;5177879;28;20056;-45
2022/08/31 11:22:45;;;;;;;5.22;1.13;;;;;;;22.09;39.26;102471.63;5201816;28;20037;-46
2022/08/31 11:25:49;;;;;;;5.28;1.05;;;;;;;22.08;39.08;102461.88;5185553;28;20396;-44
2022/08/31 11:28:31;;;;;;;;;;;;;;;22.23;39.64;102466.44;5187156;28;20435;-42
2022/08/31 11:31:13;;;;;;;1.98;1.00;;;;;;;22.27;39.48;102456.97;5200683;28;19920;-46
2022/08/31 11:33:49;;;;;;;2.03;0.80;;;;;;;22.40;39.75;102462.53;5197786;28;20289;-44
2022/08/31 11:36:49;;;;;;;1.85;1.05;;;;;;;22.50;39.57;102462.22;5200478;28;20107;-45
2022/08/31 11:39:39;;;;;;;8.20;1.48;;;;;;;22.46;39.30;102455.56;5199005;28;20447;-41
2022/08/31 11:42:36;;;;;;;2.38;0.77;;;;;;;22.43;38.53;102451.38;5197648;28;20445;-47
2022/08/31 11:45:25;;;;;;;6.57;1.00;;;;;;;22.41;37.99;102456.09;5198258;28;20054;-45
2022/08/31 11:47:58;;;;;;;3.58;1.13;;;;;;;22.31;38.51;102455.56;5199650;28;20467;-43
2022/08/31 11:51:03;;;;;;;4.40;1.00;;;;;;;22.31;38.39;102448.31;5190149;28;20123;-44
2022/08/31 11:53:42;;;;;;;2.83;1.00;;;;;;;22.39;38.86;102442.03;5196220;28;20075;-44
2022/08/31 11:56:34;;;;;;;1.95;0.70;;;;;;;22.59;38.50;102444.09;5192466;28;20593;-45
2022/08/31 11:59:25;;;;;;;6.68;0.70;;;;;;;22.55;38.25;102449.88;5190282;28;20119;-40
2022/08/31 12:02:00;;;;;;;3.05;1.20;;;;;;;22.43;38.40;102445.16;5165619;28;20330;-46
2022/08/31 12:05:01;;;;;;;2.47;0.80;;;;;;;22.32;38.22;102443.78;5176909;28;20619;-44
2022/08/31 12:07:42;;;;;;;2.10;0.98;;;;;;;22.35;38.35;102437.19;5175299;28;20045;-42
2022/08/31 12:10:42;;;;;;;2.83;1.02;;;;;;;22.42;38.26;102424.63;5171747;28;20044;-44
2022/08/31 12:13:39;;;;;;;4.15;1.20;;;;;;;22.64;37.95;102430.88;5178920;28;20485;-46
2022/08/31 12:16:29;;;;;;;3.65;0.80;;;;;;;22.81;37.92;102424.22;5179749;28;20075;-44
2022/08/31 12:26:16;;;;;;;13.60;0.80;;;;;;;22.88;36.97;102417.03;5180289;28;20045;-45
2022/08/31 12:29:19;;;;;;;2.50;0.80;;;;;;;22.99;37.04;102413.03;5175815;28;20719;-40
2022/08/31 12:32:15;;;;;;;;;;;;;;;22.98;37.06;102412.19;5175237;28;20231;-44
2022/08/31 12:34:56;;;;;;;2.03;0.93;;;;;;;22.83;36.71;102408.72;5171589;28;19928;-41
2022/08/31 12:37:32;;;;;;;2.47;0.70;;;;;;;22.69;37.07;102407.72;5179269;28;20512;-41
2022/08/31 12:40:20;;;;;;;4.25;0.90;;;;;;;22.84;37.06;102415.75;5176322;28;20095;-43